sensor_id;sensor_type;location;lat;lon;timestamp;P1;durP1;ratioP1;P2;durP2;ratioP2
9838;SDS011;4958;48.150;11.506;2022-08-26T00:34:54;12.15;;;9.38;;
9838;SDS011;4958;48.150;11.506;2022-08-26T00:38:00;11.57;;;9.88;;
9838;SDS011;4958;48.150;11.506;2022-08-26T00:40:56;11.90;;;10.15;;
9838;SDS011;4958;48.150;11.506;2022-08-26T00:58:07;11.43;;;10.20;;
9838;SDS011;4958;48.150;11.506;2022-08-26T01:01:42;12.60;;;10.68;;
9838;SDS011;4958;48.150;11.506;2022-08-26T01:05:06;11.40;;;10.05;;
9838;SDS011;4958;48.150;11.506;2022-08-26T01:13:04;11.95;;;9.98;;
9838;SDS011;4958;48.150;11.506;2022-08-26T01:22:11;10.60;;;9.50;;
9838;SDS011;4958;48.150;11.506;2022-08-26T01:25:08;10.80;;;9.55;;
9838;SDS011;4958;48.150;11.506;2022-08-26T01:30:54;10.98;;;9.98;;
9838;SDS011;4958;48.150;11.506;2022-08-26T01:38:12;11.25;;;10.15;;
9838;SDS011;4958;48.150;11.506;2022-08-26T01:51:43;11.00;;;9.75;;
9838;SDS011;4958;48.150;11.506;2022-08-26T01:59:02;11.45;;;9.43;;
9838;SDS011;4958;48.150;11.506;2022-08-26T02:15:41;11.88;;;10.23;;
9838;SDS011;4958;48.150;11.506;2022-08-26T02:18:43;11.43;;;10.32;;
9838;SDS011;4958;48.150;11.506;2022-08-26T02:24:46;12.00;;;9.75;;
9838;SDS011;4958;48.150;11.506;2022-08-26T02:35:07;12.25;;;9.73;;
9838;SDS011;4958;48.150;11.506;2022-08-26T02:41:43;10.55;;;9.65;;
9838;SDS011;4958;48.150;11.506;2022-08-26T02:52:57;11.15;;;9.77;;
9838;SDS011;4958;48.150;11.506;2022-08-26T02:58:15;11.63;;;9.80;;
9838;SDS011;4958;48.150;11.506;2022-08-26T03:01:25;10.93;;;9.93;;
9838;SDS011;4958;48.150;11.506;2022-08-26T03:29:04;11.75;;;10.55;;
9838;SDS011;4958;48.150;11.506;2022-08-26T03:31:51;12.88;;;9.95;;
9838;SDS011;4958;48.150;11.506;2022-08-26T03:34:36;12.13;;;10.85;;
9838;SDS011;4958;48.150;11.506;2022-08-26T03:37:21;11.35;;;10.07;;
9838;SDS011;4958;48.150;11.506;2022-08-26T03:41:04;12.20;;;10.32;;
9838;SDS011;4958;48.150;11.506;2022-08-26T03:47:20;12.27;;;10.90;;
9838;SDS011;4958;48.150;11.506;2022-08-26T03:50:25;11.95;;;10.63;;
9838;SDS011;4958;48.150;11.506;2022-08-26T03:53:25;14.25;;;10.85;;
9838;SDS011;4958;48.150;11.506;2022-08-26T03:56:45;13.73;;;10.70;;
9838;SDS011;4958;48.150;11.506;2022-08-26T04:27:00;13.13;;;10.52;;
9838;SDS011;4958;48.150;11.506;2022-08-26T04:30:12;12.77;;;10.10;;
9838;SDS011;4958;48.150;11.506;2022-08-26T04:33:07;12.40;;;11.20;;
9838;SDS011;4958;48.150;11.506;2022-08-26T04:37:03;14.77;;;10.65;;
9838;SDS011;4958;48.150;11.506;2022-08-26T04:46:37;14.73;;;9.98;;
9838;SDS011;4958;48.150;11.506;2022-08-26T04:49:26;14.85;;;10.13;;
9838;SDS011;4958;48.150;11.506;2022-08-26T04:55:04;15.68;;;11.70;;
9838;SDS011;4958;48.150;11.506;2022-08-26T05:01:11;12.63;;;11.25;;
9838;SDS011;4958;48.150;11.506;2022-08-26T05:14:09;13.07;;;11.15;;
9838;SDS011;4958;48.150;11.506;2022-08-26T05:44:35;17.52;;;14.38;;
9838;SDS011;4958;48.150;11.506;2022-08-26T05:54:47;14.35;;;12.93;;
9838;SDS011;4958;48.150;11.506;2022-08-26T06:04:37;15.60;;;12.13;;
9838;SDS011;4958;48.150;11.506;2022-08-26T06:10:26;14.45;;;11.45;;
9838;SDS011;4958;48.150;11.506;2022-08-26T06:13:35;14.43;;;11.77;;
9838;SDS011;4958;48.150;11.506;2022-08-26T06:16:38;13.00;;;11.65;;
9838;SDS011;4958;48.150;11.506;2022-08-26T06:19:33;12.82;;;11.27;;
9838;SDS011;4958;48.150;11.506;2022-08-26T06:22:36;13.95;;;12.00;;
9838;SDS011;4958;48.150;11.506;2022-08-26T06:25:23;15.13;;;11.80;;
9838;SDS011;4958;48.150;11.506;2022-08-26T06:28:31;14.27;;;12.45;;
9838;SDS011;4958;48.150;11.506;2022-08-26T06:34:12;18.77;;;14.70;;
9838;SDS011;4958;48.150;11.506;2022-08-26T06:37:39;22.40;;;17.50;;
9838;SDS011;4958;48.150;11.506;2022-08-26T06:47:30;13.05;;;10.18;;
9838;SDS011;4958;48.150;11.506;2022-08-26T07:08:30;10.30;;;9.40;;
9838;SDS011;4958;48.150;11.506;2022-08-26T07:14:46;11.50;;;9.75;;
9838;SDS011;4958;48.150;11.506;2022-08-26T07:18:07;9.80;;;8.80;;
9838;SDS011;4958;48.150;11.506;2022-08-26T07:21:10;11.93;;;8.23;;
9838;SDS011;4958;48.150;11.506;2022-08-26T07:24:45;9.68;;;8.57;;
9838;SDS011;4958;48.150;11.506;2022-08-26T07:45:33;9.05;;;7.50;;
9838;SDS011;4958;48.150;11.506;2022-08-26T08:03:08;10.50;;;9.48;;
9838;SDS011;4958;48.150;11.506;2022-08-26T08:05:35;10.15;;;9.18;;
9838;SDS011;4958;48.150;11.506;2022-08-26T08:08:03;8.50;;;7.70;;
9838;SDS011;4958;48.150;11.506;2022-08-26T08:10:32;9.85;;;7.97;;
9838;SDS011;4958;48.150;11.506;2022-08-26T08:13:00;9.00;;;7.45;;
9838;SDS011;4958;48.150;11.506;2022-08-26T08:15:28;7.63;;;6.93;;
9838;SDS011;4958;48.150;11.506;2022-08-26T08:17:56;8.70;;;7.07;;
9838;SDS011;4958;48.150;11.506;2022-08-26T08:20:24;8.05;;;6.75;;
9838;SDS011;4958;48.150;11.506;2022-08-26T08:22:51;9.02;;;6.47;;
9838;SDS011;4958;48.150;11.506;2022-08-26T08:25:18;11.55;;;7.30;;
9838;SDS011;4958;48.150;11.506;2022-08-26T08:27:45;8.02;;;6.85;;
9838;SDS011;4958;48.150;11.506;2022-08-26T08:30:12;7.10;;;6.50;;
9838;SDS011;4958;48.150;11.506;2022-08-26T08:32:40;7.43;;;6.57;;
9838;SDS011;4958;48.150;11.506;2022-08-26T08:35:08;7.82;;;6.38;;
9838;SDS011;4958;48.150;11.506;2022-08-26T08:37:37;9.57;;;6.70;;
9838;SDS011;4958;48.150;11.506;2022-08-26T08:40:08;7.88;;;7.15;;
9838;SDS011;4958;48.150;11.506;2022-08-26T08:42:37;8.05;;;7.22;;
9838;SDS011;4958;48.150;11.506;2022-08-26T08:45:10;9.48;;;7.05;;
9838;SDS011;4958;48.150;11.506;2022-08-26T08:47:40;8.15;;;7.30;;
9838;SDS011;4958;48.150;11.506;2022-08-26T08:50:15;10.23;;;8.43;;
9838;SDS011;4958;48.150;11.506;2022-08-26T08:52:47;10.45;;;8.77;;
9838;SDS011;4958;48.150;11.506;2022-08-26T08:55:19;10.65;;;8.60;;
9838;SDS011;4958;48.150;11.506;2022-08-26T08:57:50;10.27;;;8.40;;
9838;SDS011;4958;48.150;11.506;2022-08-26T09:00:25;9.48;;;7.15;;
9838;SDS011;4958;48.150;11.506;2022-08-26T09:02:56;10.38;;;7.28;;
9838;SDS011;4958;48.150;11.506;2022-08-26T09:05:26;11.23;;;8.38;;
9838;SDS011;4958;48.150;11.506;2022-08-26T09:07:58;10.00;;;7.50;;
9838;SDS011;4958;48.150;11.506;2022-08-26T09:10:31;11.10;;;7.10;;
9838;SDS011;4958;48.150;11.506;2022-08-26T09:13:01;10.25;;;6.88;;
9838;SDS011;4958;48.150;11.506;2022-08-26T09:15:31;8.48;;;6.25;;
9838;SDS011;4958;48.150;11.506;2022-08-26T09:18:07;9.25;;;7.25;;
9838;SDS011;4958;48.150;11.506;2022-08-26T09:20:42;8.68;;;7.30;;
9838;SDS011;4958;48.150;11.506;2022-08-26T09:23:14;9.27;;;6.82;;
9838;SDS011;4958;48.150;11.506;2022-08-26T09:25:45;7.60;;;6.80;;
9838;SDS011;4958;48.150;11.506;2022-08-26T09:28:15;9.82;;;6.78;;
9838;SDS011;4958;48.150;11.506;2022-08-26T09:30:43;7.20;;;6.47;;
9838;SDS011;4958;48.150;11.506;2022-08-26T09:33:14;8.80;;;6.50;;
9838;SDS011;4958;48.150;11.506;2022-08-26T09:35:43;8.02;;;6.43;;
9838;SDS011;4958;48.150;11.506;2022-08-26T09:38:20;9.40;;;6.68;;
9838;SDS011;4958;48.150;11.506;2022-08-26T09:40:53;9.63;;;6.30;;
9838;SDS011;4958;48.150;11.506;2022-08-26T09:43:22;6.00;;;5.03;;
9838;SDS011;4958;48.150;11.506;2022-08-26T09:45:49;8.82;;;5.60;;
9838;SDS011;4958;48.150;11.506;2022-08-26T09:48:28;7.70;;;5.85;;
9838;SDS011;4958;48.150;11.506;2022-08-26T09:50:57;6.60;;;5.22;;
9838;SDS011;4958;48.150;11.506;2022-08-26T09:53:27;9.43;;;5.82;;
9838;SDS011;4958;48.150;11.506;2022-08-26T09:56:12;8.35;;;5.80;;
9838;SDS011;4958;48.150;11.506;2022-08-26T09:58:42;7.60;;;5.28;;
9838;SDS011;4958;48.150;11.506;2022-08-26T10:01:13;9.55;;;5.18;;
9838;SDS011;4958;48.150;11.506;2022-08-26T10:03:41;6.28;;;4.68;;
9838;SDS011;4958;48.150;11.506;2022-08-26T10:06:18;8.00;;;4.93;;
9838;SDS011;4958;48.150;11.506;2022-08-26T10:08:50;8.60;;;5.20;;
9838;SDS011;4958;48.150;11.506;2022-08-26T10:11:21;7.75;;;4.70;;
9838;SDS011;4958;48.150;11.506;2022-08-26T10:13:55;7.10;;;4.75;;
9838;SDS011;4958;48.150;11.506;2022-08-26T10:16:27;5.90;;;4.03;;
9838;SDS011;4958;48.150;11.506;2022-08-26T10:18:59;11.65;;;5.30;;
9838;SDS011;4958;48.150;11.506;2022-08-26T10:21:33;7.88;;;4.90;;
9838;SDS011;4958;48.150;11.506;2022-08-26T10:24:05;9.60;;;5.53;;
9838;SDS011;4958;48.150;11.506;2022-08-26T10:26:38;7.82;;;6.82;;
9838;SDS011;4958;48.150;11.506;2022-08-26T10:29:09;9.77;;;8.77;;
9838;SDS011;4958;48.150;11.506;2022-08-26T10:31:40;11.15;;;7.13;;
9838;SDS011;4958;48.150;11.506;2022-08-26T10:34:11;7.88;;;6.18;;
9838;SDS011;4958;48.150;11.506;2022-08-26T10:36:40;9.30;;;6.00;;
9838;SDS011;4958;48.150;11.506;2022-08-26T10:39:19;9.82;;;6.45;;
9838;SDS011;4958;48.150;11.506;2022-08-26T10:41:49;7.78;;;5.88;;
9838;SDS011;4958;48.150;11.506;2022-08-26T10:44:20;9.38;;;6.13;;
9838;SDS011;4958;48.150;11.506;2022-08-26T10:46:51;10.48;;;6.35;;
9838;SDS011;4958;48.150;11.506;2022-08-26T10:49:21;8.80;;;6.07;;
9838;SDS011;4958;48.150;11.506;2022-08-26T10:51:50;7.45;;;6.32;;
9838;SDS011;4958;48.150;11.506;2022-08-26T10:54:24;12.55;;;6.70;;
9838;SDS011;4958;48.150;11.506;2022-08-26T10:56:57;11.20;;;7.03;;
9838;SDS011;4958;48.150;11.506;2022-08-26T10:59:41;11.23;;;7.05;;
9838;SDS011;4958;48.150;11.506;2022-08-26T11:02:16;11.30;;;8.88;;
9838;SDS011;4958;48.150;11.506;2022-08-26T11:04:50;11.13;;;7.00;;
9838;SDS011;4958;48.150;11.506;2022-08-26T11:07:37;7.45;;;5.97;;
9838;SDS011;4958;48.150;11.506;2022-08-26T11:10:08;10.32;;;6.82;;
9838;SDS011;4958;48.150;11.506;2022-08-26T11:12:54;8.18;;;6.35;;
9838;SDS011;4958;48.150;11.506;2022-08-26T11:18:35;9.07;;;6.53;;
9838;SDS011;4958;48.150;11.506;2022-08-26T11:27:10;8.40;;;7.30;;
9838;SDS011;4958;48.150;11.506;2022-08-26T11:29:58;7.88;;;6.60;;
9838;SDS011;4958;48.150;11.506;2022-08-26T11:38:17;12.93;;;8.30;;
9838;SDS011;4958;48.150;11.506;2022-08-26T11:40:56;7.97;;;7.07;;
9838;SDS011;4958;48.150;11.506;2022-08-26T11:43:32;8.07;;;6.13;;
9838;SDS011;4958;48.150;11.506;2022-08-26T11:46:01;8.23;;;6.45;;
9838;SDS011;4958;48.150;11.506;2022-08-26T11:48:31;9.10;;;6.47;;
9838;SDS011;4958;48.150;11.506;2022-08-26T11:51:00;8.48;;;6.93;;
9838;SDS011;4958;48.150;11.506;2022-08-26T11:53:29;6.93;;;6.22;;
9838;SDS011;4958;48.150;11.506;2022-08-26T11:55:58;8.73;;;6.57;;
9838;SDS011;4958;48.150;11.506;2022-08-26T11:58:27;8.05;;;6.03;;
9838;SDS011;4958;48.150;11.506;2022-08-26T12:00:58;8.93;;;6.53;;
9838;SDS011;4958;48.150;11.506;2022-08-26T12:03:29;11.50;;;6.60;;
9838;SDS011;4958;48.150;11.506;2022-08-26T12:06:01;12.25;;;6.38;;
9838;SDS011;4958;48.150;11.506;2022-08-26T12:08:36;8.18;;;5.93;;
9838;SDS011;4958;48.150;11.506;2022-08-26T12:11:08;8.52;;;6.18;;
9838;SDS011;4958;48.150;11.506;2022-08-26T12:13:37;7.57;;;5.53;;
9838;SDS011;4958;48.150;11.506;2022-08-26T12:16:05;5.97;;;4.65;;
9838;SDS011;4958;48.150;11.506;2022-08-26T12:18:32;6.47;;;4.07;;
9838;SDS011;4958;48.150;11.506;2022-08-26T12:21:08;4.63;;;4.20;;
9838;SDS011;4958;48.150;11.506;2022-08-26T12:23:41;6.25;;;4.30;;
9838;SDS011;4958;48.150;11.506;2022-08-26T12:26:10;7.03;;;4.28;;
9838;SDS011;4958;48.150;11.506;2022-08-26T12:28:45;6.93;;;3.83;;
9838;SDS011;4958;48.150;11.506;2022-08-26T12:31:19;5.40;;;3.90;;
9838;SDS011;4958;48.150;11.506;2022-08-26T12:33:57;6.60;;;3.80;;
9838;SDS011;4958;48.150;11.506;2022-08-26T12:36:28;3.80;;;3.38;;
9838;SDS011;4958;48.150;11.506;2022-08-26T12:38:56;3.78;;;3.40;;
9838;SDS011;4958;48.150;11.506;2022-08-26T12:41:36;4.30;;;3.80;;
9838;SDS011;4958;48.150;11.506;2022-08-26T12:47:04;4.40;;;3.92;;
9838;SDS011;4958;48.150;11.506;2022-08-26T12:49:33;4.85;;;3.70;;
9838;SDS011;4958;48.150;11.506;2022-08-26T12:52:00;4.00;;;3.60;;
9838;SDS011;4958;48.150;11.506;2022-08-26T12:54:26;5.30;;;3.85;;
9838;SDS011;4958;48.150;11.506;2022-08-26T12:57:13;5.05;;;4.18;;
9838;SDS011;4958;48.150;11.506;2022-08-26T12:59:39;5.03;;;3.70;;
9838;SDS011;4958;48.150;11.506;2022-08-26T13:02:07;4.25;;;3.85;;
9838;SDS011;4958;48.150;11.506;2022-08-26T13:04:36;6.90;;;4.28;;
9838;SDS011;4958;48.150;11.506;2022-08-26T13:07:11;4.75;;;4.00;;
9838;SDS011;4958;48.150;11.506;2022-08-26T13:09:45;6.53;;;4.43;;
9838;SDS011;4958;48.150;11.506;2022-08-26T13:12:12;6.63;;;6.03;;
9838;SDS011;4958;48.150;11.506;2022-08-26T13:14:48;6.47;;;4.25;;
9838;SDS011;4958;48.150;11.506;2022-08-26T13:17:16;6.20;;;4.57;;
9838;SDS011;4958;48.150;11.506;2022-08-26T13:19:43;5.78;;;4.40;;
9838;SDS011;4958;48.150;11.506;2022-08-26T13:22:11;8.20;;;4.35;;
9838;SDS011;4958;48.150;11.506;2022-08-26T13:24:39;6.10;;;4.45;;
9838;SDS011;4958;48.150;11.506;2022-08-26T13:27:07;5.63;;;3.95;;
9838;SDS011;4958;48.150;11.506;2022-08-26T13:29:35;4.90;;;4.07;;
9838;SDS011;4958;48.150;11.506;2022-08-26T13:32:02;5.38;;;4.22;;
9838;SDS011;4958;48.150;11.506;2022-08-26T13:34:31;5.43;;;4.35;;
9838;SDS011;4958;48.150;11.506;2022-08-26T13:36:58;5.85;;;4.60;;
9838;SDS011;4958;48.150;11.506;2022-08-26T13:39:25;5.95;;;4.72;;
9838;SDS011;4958;48.150;11.506;2022-08-26T13:41:51;6.65;;;4.78;;
9838;SDS011;4958;48.150;11.506;2022-08-26T13:44:18;4.75;;;4.07;;
9838;SDS011;4958;48.150;11.506;2022-08-26T13:46:45;5.43;;;4.15;;
9838;SDS011;4958;48.150;11.506;2022-08-26T13:49:12;6.93;;;4.75;;
9838;SDS011;4958;48.150;11.506;2022-08-26T13:51:40;6.65;;;4.32;;
9838;SDS011;4958;48.150;11.506;2022-08-26T13:54:06;6.38;;;4.30;;
9838;SDS011;4958;48.150;11.506;2022-08-26T13:56:33;6.75;;;4.20;;
9838;SDS011;4958;48.150;11.506;2022-08-26T13:59:00;6.63;;;4.70;;
9838;SDS011;4958;48.150;11.506;2022-08-26T14:01:27;5.93;;;4.50;;
9838;SDS011;4958;48.150;11.506;2022-08-26T14:03:55;4.97;;;4.18;;
9838;SDS011;4958;48.150;11.506;2022-08-26T14:06:22;6.20;;;4.10;;
9838;SDS011;4958;48.150;11.506;2022-08-26T14:08:50;11.93;;;4.28;;
9838;SDS011;4958;48.150;11.506;2022-08-26T14:11:16;5.13;;;4.60;;
9838;SDS011;4958;48.150;11.506;2022-08-26T14:13:43;4.80;;;4.40;;
9838;SDS011;4958;48.150;11.506;2022-08-26T14:16:10;6.18;;;4.53;;
9838;SDS011;4958;48.150;11.506;2022-08-26T14:18:41;6.13;;;4.10;;
9838;SDS011;4958;48.150;11.506;2022-08-26T14:21:08;4.75;;;3.97;;
9838;SDS011;4958;48.150;11.506;2022-08-26T14:23:37;5.72;;;4.05;;
9838;SDS011;4958;48.150;11.506;2022-08-26T14:26:05;4.00;;;3.33;;
9838;SDS011;4958;48.150;11.506;2022-08-26T14:28:34;4.57;;;3.83;;
9838;SDS011;4958;48.150;11.506;2022-08-26T14:31:01;6.82;;;4.75;;
9838;SDS011;4958;48.150;11.506;2022-08-26T14:33:30;4.28;;;3.90;;
9838;SDS011;4958;48.150;11.506;2022-08-26T14:35:59;6.07;;;3.95;;
9838;SDS011;4958;48.150;11.506;2022-08-26T14:38:40;14.60;;;13.32;;
9838;SDS011;4958;48.150;11.506;2022-08-26T14:41:07;6.03;;;5.03;;
9838;SDS011;4958;48.150;11.506;2022-08-26T14:43:34;7.97;;;5.75;;
9838;SDS011;4958;48.150;11.506;2022-08-26T14:46:01;5.53;;;4.50;;
9838;SDS011;4958;48.150;11.506;2022-08-26T14:48:27;4.88;;;4.03;;
9838;SDS011;4958;48.150;11.506;2022-08-26T14:50:54;6.32;;;4.60;;
9838;SDS011;4958;48.150;11.506;2022-08-26T14:53:20;7.70;;;4.60;;
9838;SDS011;4958;48.150;11.506;2022-08-26T14:56:04;6.05;;;4.68;;
9838;SDS011;4958;48.150;11.506;2022-08-26T14:58:32;6.97;;;3.90;;
9838;SDS011;4958;48.150;11.506;2022-08-26T15:00:58;6.47;;;4.22;;
9838;SDS011;4958;48.150;11.506;2022-08-26T15:03:25;5.65;;;4.18;;
9838;SDS011;4958;48.150;11.506;2022-08-26T15:05:52;6.53;;;4.15;;
9838;SDS011;4958;48.150;11.506;2022-08-26T15:08:18;6.78;;;4.32;;
9838;SDS011;4958;48.150;11.506;2022-08-26T15:10:45;6.93;;;4.07;;
9838;SDS011;4958;48.150;11.506;2022-08-26T15:13:12;5.38;;;4.35;;
9838;SDS011;4958;48.150;11.506;2022-08-26T15:15:39;11.70;;;5.85;;
9838;SDS011;4958;48.150;11.506;2022-08-26T15:18:06;9.70;;;5.93;;
9838;SDS011;4958;48.150;11.506;2022-08-26T15:20:33;6.93;;;5.07;;
9838;SDS011;4958;48.150;11.506;2022-08-26T15:22:59;8.27;;;5.90;;
9838;SDS011;4958;48.150;11.506;2022-08-26T15:25:25;17.17;;;15.27;;
9838;SDS011;4958;48.150;11.506;2022-08-26T15:27:52;7.72;;;5.38;;
9838;SDS011;4958;48.150;11.506;2022-08-26T15:30:18;8.65;;;5.80;;
9838;SDS011;4958;48.150;11.506;2022-08-26T15:32:47;9.40;;;5.38;;
9838;SDS011;4958;48.150;11.506;2022-08-26T15:35:13;8.38;;;5.22;;
9838;SDS011;4958;48.150;11.506;2022-08-26T15:37:39;8.25;;;5.70;;
9838;SDS011;4958;48.150;11.506;2022-08-26T15:40:06;8.68;;;4.95;;
9838;SDS011;4958;48.150;11.506;2022-08-26T15:42:34;7.28;;;5.03;;
9838;SDS011;4958;48.150;11.506;2022-08-26T15:45:02;7.90;;;5.47;;
9838;SDS011;4958;48.150;11.506;2022-08-26T15:47:28;9.20;;;5.28;;
9838;SDS011;4958;48.150;11.506;2022-08-26T15:49:56;8.82;;;5.47;;
9838;SDS011;4958;48.150;11.506;2022-08-26T15:52:22;6.57;;;5.43;;
9838;SDS011;4958;48.150;11.506;2022-08-26T15:54:49;9.48;;;5.43;;
9838;SDS011;4958;48.150;11.506;2022-08-26T15:57:16;10.02;;;5.45;;
9838;SDS011;4958;48.150;11.506;2022-08-26T15:59:43;8.50;;;5.60;;
9838;SDS011;4958;48.150;11.506;2022-08-26T16:02:09;11.57;;;5.70;;
9838;SDS011;4958;48.150;11.506;2022-08-26T16:04:36;20.20;;;16.45;;
9838;SDS011;4958;48.150;11.506;2022-08-26T16:07:04;10.25;;;9.27;;
9838;SDS011;4958;48.150;11.506;2022-08-26T16:09:31;16.95;;;15.23;;
9838;SDS011;4958;48.150;11.506;2022-08-26T16:11:57;9.45;;;7.22;;
9838;SDS011;4958;48.150;11.506;2022-08-26T16:14:24;8.27;;;5.18;;
9838;SDS011;4958;48.150;11.506;2022-08-26T16:16:52;6.15;;;4.93;;
9838;SDS011;4958;48.150;11.506;2022-08-26T16:19:18;9.48;;;6.10;;
9838;SDS011;4958;48.150;11.506;2022-08-26T16:21:45;7.88;;;5.68;;
9838;SDS011;4958;48.150;11.506;2022-08-26T16:24:13;7.10;;;5.43;;
9838;SDS011;4958;48.150;11.506;2022-08-26T16:26:40;8.75;;;5.57;;
9838;SDS011;4958;48.150;11.506;2022-08-26T16:29:08;9.73;;;5.43;;
9838;SDS011;4958;48.150;11.506;2022-08-26T16:31:36;9.80;;;6.68;;
9838;SDS011;4958;48.150;11.506;2022-08-26T16:34:03;12.85;;;8.32;;
9838;SDS011;4958;48.150;11.506;2022-08-26T16:36:30;10.20;;;7.35;;
9838;SDS011;4958;48.150;11.506;2022-08-26T16:38:57;13.32;;;9.55;;
9838;SDS011;4958;48.150;11.506;2022-08-26T16:41:26;11.77;;;7.70;;
9838;SDS011;4958;48.150;11.506;2022-08-26T16:43:54;10.48;;;6.80;;
9838;SDS011;4958;48.150;11.506;2022-08-26T16:46:21;10.70;;;6.55;;
9838;SDS011;4958;48.150;11.506;2022-08-26T16:48:49;7.68;;;6.22;;
9838;SDS011;4958;48.150;11.506;2022-08-26T16:51:17;10.93;;;6.47;;
9838;SDS011;4958;48.150;11.506;2022-08-26T16:53:47;14.43;;;7.30;;
9838;SDS011;4958;48.150;11.506;2022-08-26T16:56:15;12.07;;;6.35;;
9838;SDS011;4958;48.150;11.506;2022-08-26T16:58:44;10.93;;;6.65;;
9838;SDS011;4958;48.150;11.506;2022-08-26T17:01:12;8.10;;;6.30;;
9838;SDS011;4958;48.150;11.506;2022-08-26T17:03:38;10.85;;;6.78;;
9838;SDS011;4958;48.150;11.506;2022-08-26T17:06:05;11.38;;;6.68;;
9838;SDS011;4958;48.150;11.506;2022-08-26T17:08:35;9.60;;;6.43;;
9838;SDS011;4958;48.150;11.506;2022-08-26T17:11:01;10.35;;;6.60;;
9838;SDS011;4958;48.150;11.506;2022-08-26T17:13:28;10.95;;;6.63;;
9838;SDS011;4958;48.150;11.506;2022-08-26T17:15:56;10.85;;;6.93;;
9838;SDS011;4958;48.150;11.506;2022-08-26T17:18:23;9.88;;;7.15;;
9838;SDS011;4958;48.150;11.506;2022-08-26T17:20:52;7.80;;;6.53;;
9838;SDS011;4958;48.150;11.506;2022-08-26T17:23:19;11.70;;;6.22;;
9838;SDS011;4958;48.150;11.506;2022-08-26T17:25:46;13.30;;;6.80;;
9838;SDS011;4958;48.150;11.506;2022-08-26T17:28:12;8.30;;;6.75;;
9838;SDS011;4958;48.150;11.506;2022-08-26T17:30:39;8.65;;;6.65;;
9838;SDS011;4958;48.150;11.506;2022-08-26T17:33:07;8.52;;;6.95;;
9838;SDS011;4958;48.150;11.506;2022-08-26T17:35:34;10.02;;;6.75;;
9838;SDS011;4958;48.150;11.506;2022-08-26T17:38:00;8.85;;;6.75;;
9838;SDS011;4958;48.150;11.506;2022-08-26T17:40:27;9.70;;;6.60;;
9838;SDS011;4958;48.150;11.506;2022-08-26T17:42:55;12.27;;;6.43;;
9838;SDS011;4958;48.150;11.506;2022-08-26T17:45:22;7.80;;;6.72;;
9838;SDS011;4958;48.150;11.506;2022-08-26T17:47:49;10.38;;;6.35;;
9838;SDS011;4958;48.150;11.506;2022-08-26T17:50:17;11.63;;;6.47;;
9838;SDS011;4958;48.150;11.506;2022-08-26T17:52:45;10.88;;;6.03;;
9838;SDS011;4958;48.150;11.506;2022-08-26T17:55:15;7.43;;;6.20;;
9838;SDS011;4958;48.150;11.506;2022-08-26T17:57:43;9.65;;;6.30;;
9838;SDS011;4958;48.150;11.506;2022-08-26T18:00:11;8.43;;;6.55;;
9838;SDS011;4958;48.150;11.506;2022-08-26T18:02:40;11.48;;;6.22;;
9838;SDS011;4958;48.150;11.506;2022-08-26T18:05:06;10.02;;;6.47;;
9838;SDS011;4958;48.150;11.506;2022-08-26T18:07:47;9.52;;;6.70;;
9838;SDS011;4958;48.150;11.506;2022-08-26T18:10:28;15.02;;;7.28;;
9838;SDS011;4958;48.150;11.506;2022-08-26T18:12:55;11.70;;;6.50;;
9838;SDS011;4958;48.150;11.506;2022-08-26T18:15:21;10.32;;;6.32;;
9838;SDS011;4958;48.150;11.506;2022-08-26T18:17:48;13.20;;;6.97;;
9838;SDS011;4958;48.150;11.506;2022-08-26T18:20:15;13.80;;;7.47;;
9838;SDS011;4958;48.150;11.506;2022-08-26T18:22:44;9.45;;;7.03;;
9838;SDS011;4958;48.150;11.506;2022-08-26T18:25:13;12.30;;;7.70;;
9838;SDS011;4958;48.150;11.506;2022-08-26T18:27:40;9.60;;;7.70;;
9838;SDS011;4958;48.150;11.506;2022-08-26T18:30:08;12.15;;;7.45;;
9838;SDS011;4958;48.150;11.506;2022-08-26T18:32:37;10.57;;;7.45;;
9838;SDS011;4958;48.150;11.506;2022-08-26T18:35:04;11.35;;;6.75;;
9838;SDS011;4958;48.150;11.506;2022-08-26T18:37:31;11.20;;;7.80;;
9838;SDS011;4958;48.150;11.506;2022-08-26T18:39:58;9.75;;;6.90;;
9838;SDS011;4958;48.150;11.506;2022-08-26T18:42:25;10.38;;;6.90;;
9838;SDS011;4958;48.150;11.506;2022-08-26T18:44:53;12.02;;;6.80;;
9838;SDS011;4958;48.150;11.506;2022-08-26T18:47:20;8.55;;;5.90;;
9838;SDS011;4958;48.150;11.506;2022-08-26T18:49:46;9.48;;;6.15;;
9838;SDS011;4958;48.150;11.506;2022-08-26T18:52:13;5.53;;;3.63;;
9838;SDS011;4958;48.150;11.506;2022-08-26T18:54:39;10.88;;;4.45;;
9838;SDS011;4958;48.150;11.506;2022-08-26T18:57:06;5.80;;;3.10;;
9838;SDS011;4958;48.150;11.506;2022-08-26T18:59:33;2.95;;;2.65;;
9838;SDS011;4958;48.150;11.506;2022-08-26T19:02:00;8.70;;;3.70;;
9838;SDS011;4958;48.150;11.506;2022-08-26T19:04:26;5.60;;;3.45;;
9838;SDS011;4958;48.150;11.506;2022-08-26T19:06:53;5.15;;;3.63;;
9838;SDS011;4958;48.150;11.506;2022-08-26T19:09:20;10.15;;;4.82;;
9838;SDS011;4958;48.150;11.506;2022-08-26T19:11:47;10.63;;;5.80;;
9838;SDS011;4958;48.150;11.506;2022-08-26T19:14:16;8.07;;;5.75;;
9838;SDS011;4958;48.150;11.506;2022-08-26T19:16:46;8.68;;;4.80;;
9838;SDS011;4958;48.150;11.506;2022-08-26T19:19:14;5.68;;;3.90;;
9838;SDS011;4958;48.150;11.506;2022-08-26T19:21:41;5.60;;;3.30;;
9838;SDS011;4958;48.150;11.506;2022-08-26T19:24:09;8.55;;;4.32;;
9838;SDS011;4958;48.150;11.506;2022-08-26T19:26:39;6.93;;;4.80;;
9838;SDS011;4958;48.150;11.506;2022-08-26T19:29:05;7.20;;;4.10;;
9838;SDS011;4958;48.150;11.506;2022-08-26T19:31:32;6.55;;;4.07;;
9838;SDS011;4958;48.150;11.506;2022-08-26T19:34:00;6.95;;;4.38;;
9838;SDS011;4958;48.150;11.506;2022-08-26T19:36:26;4.45;;;3.83;;
9838;SDS011;4958;48.150;11.506;2022-08-26T19:38:54;7.45;;;3.90;;
9838;SDS011;4958;48.150;11.506;2022-08-26T19:41:22;5.10;;;3.40;;
9838;SDS011;4958;48.150;11.506;2022-08-26T19:43:50;4.13;;;2.75;;
9838;SDS011;4958;48.150;11.506;2022-08-26T19:46:18;3.97;;;2.65;;
9838;SDS011;4958;48.150;11.506;2022-08-26T19:48:46;3.53;;;2.50;;
9838;SDS011;4958;48.150;11.506;2022-08-26T19:51:14;5.50;;;4.80;;
9838;SDS011;4958;48.150;11.506;2022-08-26T19:53:42;6.72;;;6.03;;
9838;SDS011;4958;48.150;11.506;2022-08-26T19:56:10;3.85;;;3.53;;
9838;SDS011;4958;48.150;11.506;2022-08-26T19:58:37;5.20;;;2.92;;
9838;SDS011;4958;48.150;11.506;2022-08-26T20:01:04;3.53;;;2.83;;
9838;SDS011;4958;48.150;11.506;2022-08-26T20:03:31;3.22;;;2.90;;
9838;SDS011;4958;48.150;11.506;2022-08-26T20:05:58;6.32;;;5.38;;
9838;SDS011;4958;48.150;11.506;2022-08-26T20:08:28;4.53;;;3.80;;
9838;SDS011;4958;48.150;11.506;2022-08-26T20:10:54;5.78;;;3.60;;
9838;SDS011;4958;48.150;11.506;2022-08-26T20:13:21;7.80;;;4.80;;
9838;SDS011;4958;48.150;11.506;2022-08-26T20:15:48;4.85;;;3.70;;
9838;SDS011;4958;48.150;11.506;2022-08-26T20:18:14;3.97;;;3.58;;
9838;SDS011;4958;48.150;11.506;2022-08-26T20:21:01;5.50;;;3.47;;
9838;SDS011;4958;48.150;11.506;2022-08-26T20:23:48;4.32;;;3.92;;
9838;SDS011;4958;48.150;11.506;2022-08-26T20:26:15;4.80;;;3.45;;
9838;SDS011;4958;48.150;11.506;2022-08-26T20:28:42;5.97;;;3.30;;
9838;SDS011;4958;48.150;11.506;2022-08-26T20:31:08;8.75;;;7.40;;
9838;SDS011;4958;48.150;11.506;2022-08-26T20:33:35;6.32;;;5.72;;
9838;SDS011;4958;48.150;11.506;2022-08-26T20:36:01;8.65;;;7.50;;
9838;SDS011;4958;48.150;11.506;2022-08-26T20:38:29;4.47;;;3.97;;
9838;SDS011;4958;48.150;11.506;2022-08-26T20:40:56;6.05;;;4.93;;
9838;SDS011;4958;48.150;11.506;2022-08-26T20:43:23;14.00;;;12.70;;
9838;SDS011;4958;48.150;11.506;2022-08-26T20:45:49;8.15;;;4.32;;
9838;SDS011;4958;48.150;11.506;2022-08-26T20:48:16;5.32;;;4.82;;
9838;SDS011;4958;48.150;11.506;2022-08-26T20:50:42;4.05;;;3.60;;
9838;SDS011;4958;48.150;11.506;2022-08-26T20:53:09;6.22;;;3.72;;
9838;SDS011;4958;48.150;11.506;2022-08-26T20:55:36;4.00;;;3.60;;
9838;SDS011;4958;48.150;11.506;2022-08-26T20:58:04;12.80;;;11.63;;
9838;SDS011;4958;48.150;11.506;2022-08-26T21:00:30;16.15;;;14.52;;
9838;SDS011;4958;48.150;11.506;2022-08-26T21:02:57;17.05;;;14.55;;